»·PEaware :: SHED11 KGEG-KSEA

SHED11 :: KGEG-KSEA

FLIGHT INFORMATION

Flight Status: Arrived
Operator: Unknown
More flights by this operator :: More flights under this callsign
Pilot: Robert B. (21729)
Aircraft: BEECH AIRCRAFT T-6A TEXAN
(TEX2)
More flights by this aircraft type
Origin: KGEG Spokane Intl
United States
Destination: KSEA Seattle-Tacoma Intl
United States
More flights between these airports :: More routes between these airports
Route: GEG GLASR1
File this flight plan on PilotEdge
Remarks:
Altitude:
(Current/Filed)
16,000ft
Speed:
(Current/Filed)
270kts
Departed: 04-Feb-21 07:31 AM
Arrived: 04-Feb-21 08:17 AM
Distance/Time
Traveled:
194nm/0:45
Distance/Time
To Go:
Arrived

Flight Plot

Page will automatically refresh every two minutes.

Flight plan parsing failed; only flown route is shown


Map Options




Map Legend


Flown Route
Filed Route
Departure Airport
Arrival Airport
Navaid (VOR, NDB)
Fix

Horizontal Profiles

Position Reports

Time Latitude Longitude Heading Altitude Ground
Speed
04-Feb-21 07:21 47.623773 -117.524494 269 2351ft 0kts
04-Feb-21 07:22 47.623773 -117.524494 269 2351ft 0kts
04-Feb-21 07:23 47.623773 -117.524494 269 2351ft 0kts
04-Feb-21 07:24 47.623773 -117.524494 269 2351ft 0kts
04-Feb-21 07:25 47.623773 -117.524494 269 2351ft 0kts
04-Feb-21 07:26 47.624822 -117.524428 44 2347ft 12kts
04-Feb-21 07:27 47.627858 -117.519834 45 2338ft 19kts
04-Feb-21 07:28 47.630451 -117.517371 314 2323ft 0kts
04-Feb-21 07:29 47.630538 -117.517500 313 2323ft 2kts
04-Feb-21 07:30 47.628182 -117.522883 223 2367ft 95kts
04-Feb-21 07:31 47.605206 -117.559816 248 4559ft 132kts
04-Feb-21 07:32 47.609273 -117.626782 280 7664ft 187kts
04-Feb-21 07:33 47.621537 -117.703502 267 10807ft 206kts
04-Feb-21 07:34 47.621270 -117.797945 270 12785ft 245kts
04-Feb-21 07:35 47.613392 -117.886180 260 16937ft 216kts
04-Feb-21 07:36 47.607135 -117.998730 269 16027ft 292kts
04-Feb-21 07:37 47.607437 -118.118786 271 16232ft 289kts
04-Feb-21 07:38 47.611925 -118.239605 272 15975ft 295kts
04-Feb-21 07:39 47.616608 -118.359782 274 16148ft 291kts
04-Feb-21 07:40 47.622578 -118.481146 279 16006ft 292kts
04-Feb-21 07:41 47.636462 -118.599844 280 15998ft 295kts
04-Feb-21 07:42 47.652057 -118.719052 281 15900ft 294kts
04-Feb-21 07:43 47.665470 -118.837596 279 16049ft 293kts
04-Feb-21 07:44 47.676394 -118.957602 276 16000ft 294kts
04-Feb-21 07:45 47.683557 -119.077366 273 16129ft 293kts
04-Feb-21 07:46 47.688266 -119.198609 272 16102ft 295kts
04-Feb-21 07:47 47.692733 -119.322451 274 16058ft 302kts
04-Feb-21 07:48 47.699903 -119.447116 275 15978ft 303kts
04-Feb-21 07:49 47.710579 -119.570683 278 15974ft 300kts
04-Feb-21 07:50 47.722322 -119.693722 278 15921ft 302kts
04-Feb-21 07:51 47.734601 -119.817170 277 15910ft 301kts
04-Feb-21 07:52 47.745974 -119.940481 277 15930ft 301kts
04-Feb-21 07:53 47.761152 -120.120731 276 15923ft 301kts
04-Feb-21 07:54 47.769448 -120.369550 270 16014ft 298kts
04-Feb-21 07:55 47.776548 -120.617690 274 16082ft 301kts
04-Feb-21 07:56 47.792322 -120.865925 276 15948ft 303kts
04-Feb-21 07:57 47.810961 -121.113906 276 15935ft 303kts
04-Feb-21 07:58 47.829368 -121.323912 282 11881ft 281kts
04-Feb-21 07:59 47.843621 -121.432279 281 10008ft 243kts
04-Feb-21 08:00 47.855326 -121.519725 279 9913ft 193kts
04-Feb-21 08:01 47.864577 -121.611639 279 10099ft 262kts
04-Feb-21 08:02 47.871532 -121.721591 257 9819ft 265kts
04-Feb-21 08:03 47.827546 -121.803272 259 7617ft 262kts
04-Feb-21 08:04 47.822923 -121.907055 268 5771ft 248kts
04-Feb-21 08:05 47.818231 -122.005143 265 4583ft 214kts
04-Feb-21 08:06 47.811888 -122.092541 262 4608ft 217kts
04-Feb-21 08:07 47.805753 -122.177799 263 4491ft 191kts
04-Feb-21 08:08 47.770244 -122.228964 205 3874ft 173kts
04-Feb-21 08:09 47.726875 -122.261266 207 3631ft 185kts
04-Feb-21 08:10 47.680080 -122.297299 206 3671ft 191kts
04-Feb-21 08:11 47.627105 -122.306774 181 3634ft 196kts
04-Feb-21 08:12 47.574163 -122.307868 179 2708ft 194kts
04-Feb-21 08:13 47.528789 -122.307425 180 1771ft 124kts
04-Feb-21 08:14 47.495362 -122.307889 182 1085ft 116kts
04-Feb-21 08:15 47.463836 -122.307781 179 461ft 114kts
04-Feb-21 08:16 47.450100 -122.306371 90 406ft 0kts
04-Feb-21 08:17 47.450092 -122.304893 89 407ft 0kts

Navigation Log

Ident Type
Flight plan parsing failed, navigation log unavailable